sensor_id;sensor_type;location;lat;lon;timestamp;temperature;humidity
29817;DHT22;16805;52.956;5.906;2022-07-23T00:01:18;16.70;99.90
29817;DHT22;16805;52.956;5.906;2022-07-23T00:03:44;16.70;99.90
29817;DHT22;16805;52.956;5.906;2022-07-23T00:06:10;16.70;99.90
29817;DHT22;16805;52.956;5.906;2022-07-23T00:08:36;16.60;99.90
29817;DHT22;16805;52.956;5.906;2022-07-23T00:11:01;16.60;99.90
29817;DHT22;16805;52.956;5.906;2022-07-23T00:13:27;16.60;99.90
29817;DHT22;16805;52.956;5.906;2022-07-23T00:15:53;16.60;99.90
29817;DHT22;16805;52.956;5.906;2022-07-23T00:18:19;16.60;99.90
29817;DHT22;16805;52.956;5.906;2022-07-23T00:20:45;16.60;99.90
29817;DHT22;16805;52.956;5.906;2022-07-23T00:23:10;16.50;99.90
29817;DHT22;16805;52.956;5.906;2022-07-23T00:25:36;16.50;99.90
29817;DHT22;16805;52.956;5.906;2022-07-23T00:28:02;16.50;99.90
29817;DHT22;16805;52.956;5.906;2022-07-23T00:30:29;16.50;99.90
29817;DHT22;16805;52.956;5.906;2022-07-23T00:33:00;16.50;99.90
29817;DHT22;16805;52.956;5.906;2022-07-23T00:35:29;16.40;99.90
29817;DHT22;16805;52.956;5.906;2022-07-23T00:37:56;16.40;99.90
29817;DHT22;16805;52.956;5.906;2022-07-23T00:40:22;16.40;99.90
29817;DHT22;16805;52.956;5.906;2022-07-23T00:42:48;16.40;99.90
29817;DHT22;16805;52.956;5.906;2022-07-23T00:45:13;16.40;99.90
29817;DHT22;16805;52.956;5.906;2022-07-23T00:47:39;16.30;99.90
29817;DHT22;16805;52.956;5.906;2022-07-23T00:50:06;16.30;99.90
29817;DHT22;16805;52.956;5.906;2022-07-23T00:52:32;16.30;99.90
29817;DHT22;16805;52.956;5.906;2022-07-23T00:54:58;16.30;99.90
29817;DHT22;16805;52.956;5.906;2022-07-23T00:57:24;16.30;99.90
29817;DHT22;16805;52.956;5.906;2022-07-23T00:59:50;16.20;99.90
29817;DHT22;16805;52.956;5.906;2022-07-23T01:02:16;16.20;99.90
29817;DHT22;16805;52.956;5.906;2022-07-23T01:04:41;16.20;99.90
29817;DHT22;16805;52.956;5.906;2022-07-23T01:07:07;16.20;99.90
29817;DHT22;16805;52.956;5.906;2022-07-23T01:09:33;16.20;99.90
29817;DHT22;16805;52.956;5.906;2022-07-23T01:11:59;16.20;99.90
29817;DHT22;16805;52.956;5.906;2022-07-23T01:14:25;16.20;99.90
29817;DHT22;16805;52.956;5.906;2022-07-23T01:16:52;16.20;99.90
29817;DHT22;16805;52.956;5.906;2022-07-23T01:19:18;16.20;99.90
29817;DHT22;16805;52.956;5.906;2022-07-23T01:21:49;16.20;99.90
29817;DHT22;16805;52.956;5.906;2022-07-23T01:24:15;16.20;99.90
29817;DHT22;16805;52.956;5.906;2022-07-23T01:26:43;16.20;99.90
29817;DHT22;16805;52.956;5.906;2022-07-23T01:29:09;16.20;99.90
29817;DHT22;16805;52.956;5.906;2022-07-23T01:31:35;16.20;99.90
29817;DHT22;16805;52.956;5.906;2022-07-23T01:34:04;16.20;99.90
29817;DHT22;16805;52.956;5.906;2022-07-23T01:36:30;16.10;99.90
29817;DHT22;16805;52.956;5.906;2022-07-23T01:38:55;16.20;99.90
29817;DHT22;16805;52.956;5.906;2022-07-23T01:41:21;16.10;99.90
29817;DHT22;16805;52.956;5.906;2022-07-23T01:43:47;16.10;99.90
29817;DHT22;16805;52.956;5.906;2022-07-23T01:46:13;16.10;99.90
29817;DHT22;16805;52.956;5.906;2022-07-23T01:48:38;16.10;99.90
29817;DHT22;16805;52.956;5.906;2022-07-23T01:51:04;16.10;99.90
29817;DHT22;16805;52.956;5.906;2022-07-23T01:53:30;16.00;99.90
29817;DHT22;16805;52.956;5.906;2022-07-23T01:55:59;16.00;99.90
29817;DHT22;16805;52.956;5.906;2022-07-23T01:58:26;16.00;99.90
29817;DHT22;16805;52.956;5.906;2022-07-23T02:00:52;16.00;99.90
29817;DHT22;16805;52.956;5.906;2022-07-23T02:03:17;16.00;99.90
29817;DHT22;16805;52.956;5.906;2022-07-23T02:05:43;15.90;99.90
29817;DHT22;16805;52.956;5.906;2022-07-23T02:08:09;15.90;99.90
29817;DHT22;16805;52.956;5.906;2022-07-23T02:10:34;15.90;99.90
29817;DHT22;16805;52.956;5.906;2022-07-23T02:13:00;15.90;99.90
29817;DHT22;16805;52.956;5.906;2022-07-23T02:15:26;15.90;99.90
29817;DHT22;16805;52.956;5.906;2022-07-23T02:17:52;15.90;99.90
29817;DHT22;16805;52.956;5.906;2022-07-23T02:20:17;15.90;99.90
29817;DHT22;16805;52.956;5.906;2022-07-23T02:22:44;15.90;99.90
29817;DHT22;16805;52.956;5.906;2022-07-23T02:25:09;15.90;99.90
29817;DHT22;16805;52.956;5.906;2022-07-23T02:27:35;15.90;99.90
29817;DHT22;16805;52.956;5.906;2022-07-23T02:30:02;15.80;99.90
29817;DHT22;16805;52.956;5.906;2022-07-23T02:32:27;15.80;99.90
29817;DHT22;16805;52.956;5.906;2022-07-23T02:34:53;15.80;99.90
29817;DHT22;16805;52.956;5.906;2022-07-23T02:37:19;15.80;99.90
29817;DHT22;16805;52.956;5.906;2022-07-23T02:39:44;15.80;99.90
29817;DHT22;16805;52.956;5.906;2022-07-23T02:42:10;15.70;99.90
29817;DHT22;16805;52.956;5.906;2022-07-23T02:44:36;15.70;99.90
29817;DHT22;16805;52.956;5.906;2022-07-23T02:47:02;15.60;99.90
29817;DHT22;16805;52.956;5.906;2022-07-23T02:49:28;15.60;99.90
29817;DHT22;16805;52.956;5.906;2022-07-23T02:51:53;15.60;99.90
29817;DHT22;16805;52.956;5.906;2022-07-23T02:54:19;15.60;99.90
29817;DHT22;16805;52.956;5.906;2022-07-23T02:56:45;15.60;99.90
29817;DHT22;16805;52.956;5.906;2022-07-23T02:59:10;15.60;99.90
29817;DHT22;16805;52.956;5.906;2022-07-23T03:01:37;15.50;99.90
29817;DHT22;16805;52.956;5.906;2022-07-23T03:04:03;15.50;99.90
29817;DHT22;16805;52.956;5.906;2022-07-23T03:06:28;15.50;99.90
29817;DHT22;16805;52.956;5.906;2022-07-23T03:08:54;15.50;99.90
29817;DHT22;16805;52.956;5.906;2022-07-23T03:11:20;15.50;99.90
29817;DHT22;16805;52.956;5.906;2022-07-23T03:13:45;15.50;99.90
29817;DHT22;16805;52.956;5.906;2022-07-23T03:16:11;15.50;99.90
29817;DHT22;16805;52.956;5.906;2022-07-23T03:18:37;15.40;99.90
29817;DHT22;16805;52.956;5.906;2022-07-23T03:21:02;15.40;99.90
29817;DHT22;16805;52.956;5.906;2022-07-23T03:23:28;15.40;99.90
29817;DHT22;16805;52.956;5.906;2022-07-23T03:25:54;15.40;99.90
29817;DHT22;16805;52.956;5.906;2022-07-23T03:28:19;15.40;99.90
29817;DHT22;16805;52.956;5.906;2022-07-23T03:30:45;15.40;99.90
29817;DHT22;16805;52.956;5.906;2022-07-23T03:33:15;15.40;99.90
29817;DHT22;16805;52.956;5.906;2022-07-23T03:35:44;15.30;99.90
29817;DHT22;16805;52.956;5.906;2022-07-23T03:38:10;15.40;99.90
29817;DHT22;16805;52.956;5.906;2022-07-23T03:40:36;15.40;99.90
29817;DHT22;16805;52.956;5.906;2022-07-23T03:43:01;15.40;99.90
29817;DHT22;16805;52.956;5.906;2022-07-23T03:45:27;15.30;99.90
29817;DHT22;16805;52.956;5.906;2022-07-23T03:47:53;15.30;99.90
29817;DHT22;16805;52.956;5.906;2022-07-23T03:50:19;15.30;99.90
29817;DHT22;16805;52.956;5.906;2022-07-23T03:52:44;15.30;99.90
29817;DHT22;16805;52.956;5.906;2022-07-23T03:55:10;15.30;99.90
29817;DHT22;16805;52.956;5.906;2022-07-23T03:57:36;15.30;99.90
29817;DHT22;16805;52.956;5.906;2022-07-23T04:00:03;15.30;99.90
29817;DHT22;16805;52.956;5.906;2022-07-23T04:02:30;15.20;99.90
29817;DHT22;16805;52.956;5.906;2022-07-23T04:04:56;15.30;99.90
29817;DHT22;16805;52.956;5.906;2022-07-23T04:07:21;15.30;99.90
29817;DHT22;16805;52.956;5.906;2022-07-23T04:09:47;15.20;99.90
29817;DHT22;16805;52.956;5.906;2022-07-23T04:12:14;15.30;99.90
29817;DHT22;16805;52.956;5.906;2022-07-23T04:14:40;15.30;99.90
29817;DHT22;16805;52.956;5.906;2022-07-23T04:17:05;15.30;99.90
29817;DHT22;16805;52.956;5.906;2022-07-23T04:19:31;15.40;99.90
29817;DHT22;16805;52.956;5.906;2022-07-23T04:21:57;15.40;99.90
29817;DHT22;16805;52.956;5.906;2022-07-23T04:24:23;15.50;99.90
29817;DHT22;16805;52.956;5.906;2022-07-23T04:26:48;15.60;99.90
29817;DHT22;16805;52.956;5.906;2022-07-23T04:29:14;15.70;99.90
29817;DHT22;16805;52.956;5.906;2022-07-23T04:31:40;15.70;99.90
29817;DHT22;16805;52.956;5.906;2022-07-23T04:34:05;15.80;99.90
29817;DHT22;16805;52.956;5.906;2022-07-23T04:36:31;15.90;99.90
29817;DHT22;16805;52.956;5.906;2022-07-23T04:38:57;16.00;99.90
29817;DHT22;16805;52.956;5.906;2022-07-23T04:41:22;16.00;99.90
29817;DHT22;16805;52.956;5.906;2022-07-23T04:43:48;16.10;99.90
29817;DHT22;16805;52.956;5.906;2022-07-23T04:46:13;16.20;99.90
29817;DHT22;16805;52.956;5.906;2022-07-23T04:48:39;16.20;99.90
29817;DHT22;16805;52.956;5.906;2022-07-23T04:51:23;16.30;99.90
29817;DHT22;16805;52.956;5.906;2022-07-23T04:53:49;16.30;99.90
29817;DHT22;16805;52.956;5.906;2022-07-23T04:56:15;16.40;99.90
29817;DHT22;16805;52.956;5.906;2022-07-23T04:58:40;16.50;99.90
29817;DHT22;16805;52.956;5.906;2022-07-23T05:01:06;16.50;99.90
29817;DHT22;16805;52.956;5.906;2022-07-23T05:03:32;16.60;99.90
29817;DHT22;16805;52.956;5.906;2022-07-23T05:05:58;16.80;99.90
29817;DHT22;16805;52.956;5.906;2022-07-23T05:08:23;16.90;99.90
29817;DHT22;16805;52.956;5.906;2022-07-23T05:10:49;17.00;99.90
29817;DHT22;16805;52.956;5.906;2022-07-23T05:13:16;17.10;99.90
29817;DHT22;16805;52.956;5.906;2022-07-23T05:15:42;17.20;99.90
29817;DHT22;16805;52.956;5.906;2022-07-23T05:18:08;17.30;99.90
29817;DHT22;16805;52.956;5.906;2022-07-23T05:20:34;17.40;99.90
29817;DHT22;16805;52.956;5.906;2022-07-23T05:22:59;17.50;99.90
29817;DHT22;16805;52.956;5.906;2022-07-23T05:25:25;17.60;99.90
29817;DHT22;16805;52.956;5.906;2022-07-23T05:27:50;17.80;99.90
29817;DHT22;16805;52.956;5.906;2022-07-23T05:30:16;17.90;99.90
29817;DHT22;16805;52.956;5.906;2022-07-23T05:32:42;18.00;99.90
29817;DHT22;16805;52.956;5.906;2022-07-23T05:35:07;18.10;99.90
29817;DHT22;16805;52.956;5.906;2022-07-23T05:37:33;18.30;99.90
29817;DHT22;16805;52.956;5.906;2022-07-23T05:40:09;18.40;99.90
29817;DHT22;16805;52.956;5.906;2022-07-23T05:42:39;18.50;99.90
29817;DHT22;16805;52.956;5.906;2022-07-23T05:45:05;18.70;99.90
29817;DHT22;16805;52.956;5.906;2022-07-23T05:47:46;18.80;99.90
29817;DHT22;16805;52.956;5.906;2022-07-23T05:50:13;19.00;99.90
29817;DHT22;16805;52.956;5.906;2022-07-23T05:52:39;19.10;99.90
29817;DHT22;16805;52.956;5.906;2022-07-23T05:55:06;19.30;99.90
29817;DHT22;16805;52.956;5.906;2022-07-23T05:57:32;19.50;99.90
29817;DHT22;16805;52.956;5.906;2022-07-23T05:59:57;19.60;99.90
29817;DHT22;16805;52.956;5.906;2022-07-23T06:02:23;19.80;99.90
29817;DHT22;16805;52.956;5.906;2022-07-23T06:04:48;20.00;99.90
29817;DHT22;16805;52.956;5.906;2022-07-23T06:07:15;20.10;99.90
29817;DHT22;16805;52.956;5.906;2022-07-23T06:09:41;20.20;99.90
29817;DHT22;16805;52.956;5.906;2022-07-23T06:12:07;20.40;99.90
29817;DHT22;16805;52.956;5.906;2022-07-23T06:14:32;20.50;99.90
29817;DHT22;16805;52.956;5.906;2022-07-23T06:16:58;20.70;99.90
29817;DHT22;16805;52.956;5.906;2022-07-23T06:19:25;20.80;99.90
29817;DHT22;16805;52.956;5.906;2022-07-23T06:21:50;21.00;99.90
29817;DHT22;16805;52.956;5.906;2022-07-23T06:24:16;21.10;99.90
29817;DHT22;16805;52.956;5.906;2022-07-23T06:26:42;21.20;99.90
29817;DHT22;16805;52.956;5.906;2022-07-23T06:29:07;21.40;99.90
29817;DHT22;16805;52.956;5.906;2022-07-23T06:31:34;21.50;99.90
29817;DHT22;16805;52.956;5.906;2022-07-23T06:33:59;21.40;99.90
29817;DHT22;16805;52.956;5.906;2022-07-23T06:36:25;21.40;99.90
29817;DHT22;16805;52.956;5.906;2022-07-23T06:38:50;21.40;99.90
29817;DHT22;16805;52.956;5.906;2022-07-23T06:41:16;21.40;99.90
29817;DHT22;16805;52.956;5.906;2022-07-23T06:43:42;21.20;99.90
29817;DHT22;16805;52.956;5.906;2022-07-23T06:46:07;21.20;99.90
29817;DHT22;16805;52.956;5.906;2022-07-23T06:48:33;21.10;99.90
29817;DHT22;16805;52.956;5.906;2022-07-23T06:51:01;21.20;99.90
29817;DHT22;16805;52.956;5.906;2022-07-23T06:53:27;21.30;99.90
29817;DHT22;16805;52.956;5.906;2022-07-23T06:55:52;21.50;99.90
29817;DHT22;16805;52.956;5.906;2022-07-23T06:58:18;21.70;99.90
29817;DHT22;16805;52.956;5.906;2022-07-23T07:00:44;21.70;99.90
29817;DHT22;16805;52.956;5.906;2022-07-23T07:03:10;21.90;99.90
29817;DHT22;16805;52.956;5.906;2022-07-23T07:05:36;21.90;99.90
29817;DHT22;16805;52.956;5.906;2022-07-23T07:08:01;22.00;99.90
29817;DHT22;16805;52.956;5.906;2022-07-23T07:10:27;22.20;99.90
29817;DHT22;16805;52.956;5.906;2022-07-23T07:12:52;22.30;99.90
29817;DHT22;16805;52.956;5.906;2022-07-23T07:15:18;22.40;99.90
29817;DHT22;16805;52.956;5.906;2022-07-23T07:17:44;22.60;99.90
29817;DHT22;16805;52.956;5.906;2022-07-23T07:20:10;22.80;99.90
29817;DHT22;16805;52.956;5.906;2022-07-23T07:22:36;22.90;99.90
29817;DHT22;16805;52.956;5.906;2022-07-23T07:25:02;23.00;99.90
29817;DHT22;16805;52.956;5.906;2022-07-23T07:27:27;23.10;99.90
29817;DHT22;16805;52.956;5.906;2022-07-23T07:29:53;23.20;99.90
29817;DHT22;16805;52.956;5.906;2022-07-23T07:32:19;23.30;99.90
29817;DHT22;16805;52.956;5.906;2022-07-23T07:34:44;23.40;99.90
29817;DHT22;16805;52.956;5.906;2022-07-23T07:37:10;23.60;99.90
29817;DHT22;16805;52.956;5.906;2022-07-23T07:39:35;23.70;99.90
29817;DHT22;16805;52.956;5.906;2022-07-23T07:42:01;23.80;99.90
29817;DHT22;16805;52.956;5.906;2022-07-23T07:44:27;23.90;99.90
29817;DHT22;16805;52.956;5.906;2022-07-23T07:46:52;24.00;99.90
29817;DHT22;16805;52.956;5.906;2022-07-23T07:49:18;24.00;99.90
29817;DHT22;16805;52.956;5.906;2022-07-23T07:51:45;24.00;99.90
29817;DHT22;16805;52.956;5.906;2022-07-23T07:54:11;24.00;99.90
29817;DHT22;16805;52.956;5.906;2022-07-23T07:56:37;23.90;99.90
29817;DHT22;16805;52.956;5.906;2022-07-23T07:59:02;23.80;99.90
29817;DHT22;16805;52.956;5.906;2022-07-23T08:01:28;23.70;99.90
29817;DHT22;16805;52.956;5.906;2022-07-23T08:03:53;23.70;99.90
29817;DHT22;16805;52.956;5.906;2022-07-23T08:06:19;23.70;99.90
29817;DHT22;16805;52.956;5.906;2022-07-23T08:08:45;23.70;99.90
29817;DHT22;16805;52.956;5.906;2022-07-23T08:11:10;23.80;99.90
29817;DHT22;16805;52.956;5.906;2022-07-23T08:13:36;23.80;99.90
29817;DHT22;16805;52.956;5.906;2022-07-23T08:16:01;23.80;99.90
29817;DHT22;16805;52.956;5.906;2022-07-23T08:18:27;23.90;99.90
29817;DHT22;16805;52.956;5.906;2022-07-23T08:20:53;23.80;99.90
29817;DHT22;16805;52.956;5.906;2022-07-23T08:23:18;23.80;99.90
29817;DHT22;16805;52.956;5.906;2022-07-23T08:25:46;23.80;99.90
29817;DHT22;16805;52.956;5.906;2022-07-23T08:28:13;23.60;99.90
29817;DHT22;16805;52.956;5.906;2022-07-23T08:30:40;23.50;99.90
29817;DHT22;16805;52.956;5.906;2022-07-23T08:33:14;23.50;99.90
29817;DHT22;16805;52.956;5.906;2022-07-23T08:35:46;23.30;99.90
29817;DHT22;16805;52.956;5.906;2022-07-23T08:38:13;23.20;99.90
29817;DHT22;16805;52.956;5.906;2022-07-23T08:40:44;23.10;99.90
29817;DHT22;16805;52.956;5.906;2022-07-23T08:43:13;23.10;99.90
29817;DHT22;16805;52.956;5.906;2022-07-23T08:45:41;23.10;99.90
29817;DHT22;16805;52.956;5.906;2022-07-23T08:48:08;23.00;99.90
29817;DHT22;16805;52.956;5.906;2022-07-23T08:50:36;23.00;99.90
29817;DHT22;16805;52.956;5.906;2022-07-23T08:53:05;23.00;99.90
29817;DHT22;16805;52.956;5.906;2022-07-23T08:55:31;23.00;99.90
29817;DHT22;16805;52.956;5.906;2022-07-23T08:57:57;23.00;99.90
29817;DHT22;16805;52.956;5.906;2022-07-23T09:00:22;23.00;99.90
29817;DHT22;16805;52.956;5.906;2022-07-23T09:02:49;23.00;99.90
29817;DHT22;16805;52.956;5.906;2022-07-23T09:05:17;23.00;99.90
29817;DHT22;16805;52.956;5.906;2022-07-23T09:10:49;23.00;99.90
29817;DHT22;16805;52.956;5.906;2022-07-23T09:16:25;22.90;99.90
29817;DHT22;16805;52.956;5.906;2022-07-23T09:18:55;22.90;99.90
29817;DHT22;16805;52.956;5.906;2022-07-23T09:21:31;22.90;99.90
29817;DHT22;16805;52.956;5.906;2022-07-23T09:29:02;22.80;99.90
29817;DHT22;16805;52.956;5.906;2022-07-23T09:34:24;22.90;99.90
29817;DHT22;16805;52.956;5.906;2022-07-23T09:36:58;23.00;99.90
29817;DHT22;16805;52.956;5.906;2022-07-23T09:39:33;23.00;99.90
29817;DHT22;16805;52.956;5.906;2022-07-23T09:42:23;23.00;99.90
29817;DHT22;16805;52.956;5.906;2022-07-23T09:44:52;23.00;99.90
29817;DHT22;16805;52.956;5.906;2022-07-23T09:47:19;23.00;99.90
29817;DHT22;16805;52.956;5.906;2022-07-23T09:52:31;23.10;99.90
29817;DHT22;16805;52.956;5.906;2022-07-23T09:55:02;23.20;99.90
29817;DHT22;16805;52.956;5.906;2022-07-23T09:57:29;23.30;99.90
29817;DHT22;16805;52.956;5.906;2022-07-23T09:59:59;23.40;99.90
29817;DHT22;16805;52.956;5.906;2022-07-23T10:02:25;23.50;99.90
29817;DHT22;16805;52.956;5.906;2022-07-23T10:04:53;23.60;99.90
29817;DHT22;16805;52.956;5.906;2022-07-23T10:07:22;23.60;99.90
29817;DHT22;16805;52.956;5.906;2022-07-23T10:09:50;23.60;99.90
29817;DHT22;16805;52.956;5.906;2022-07-23T10:12:18;23.50;99.90
29817;DHT22;16805;52.956;5.906;2022-07-23T10:15:03;23.50;99.90
29817;DHT22;16805;52.956;5.906;2022-07-23T10:17:31;23.40;99.90
29817;DHT22;16805;52.956;5.906;2022-07-23T10:19:57;23.40;99.90
29817;DHT22;16805;52.956;5.906;2022-07-23T10:22:24;23.40;99.90
29817;DHT22;16805;52.956;5.906;2022-07-23T10:30:59;23.50;99.90
29817;DHT22;16805;52.956;5.906;2022-07-23T10:41:51;23.70;99.90
29817;DHT22;16805;52.956;5.906;2022-07-23T10:44:21;23.70;99.90
29817;DHT22;16805;52.956;5.906;2022-07-23T10:46:59;23.70;99.90
29817;DHT22;16805;52.956;5.906;2022-07-23T10:49:30;23.80;99.90
29817;DHT22;16805;52.956;5.906;2022-07-23T10:54:45;23.90;99.90
29817;DHT22;16805;52.956;5.906;2022-07-23T10:57:13;24.00;99.90
29817;DHT22;16805;52.956;5.906;2022-07-23T11:02:28;24.00;99.90
29817;DHT22;16805;52.956;5.906;2022-07-23T11:04:58;24.00;99.90
29817;DHT22;16805;52.956;5.906;2022-07-23T11:07:24;23.90;99.90
29817;DHT22;16805;52.956;5.906;2022-07-23T11:09:50;23.90;99.90
29817;DHT22;16805;52.956;5.906;2022-07-23T11:17:37;24.00;99.90
29817;DHT22;16805;52.956;5.906;2022-07-23T11:20:21;24.10;99.90
29817;DHT22;16805;52.956;5.906;2022-07-23T11:22:51;24.10;99.90
29817;DHT22;16805;52.956;5.906;2022-07-23T11:27:53;24.20;99.90
29817;DHT22;16805;52.956;5.906;2022-07-23T11:35:36;24.30;99.90
29817;DHT22;16805;52.956;5.906;2022-07-23T11:40:40;24.20;99.90
29817;DHT22;16805;52.956;5.906;2022-07-23T11:43:10;24.10;99.90
29817;DHT22;16805;52.956;5.906;2022-07-23T11:45:41;24.10;99.90
29817;DHT22;16805;52.956;5.906;2022-07-23T11:48:15;24.10;99.90
29817;DHT22;16805;52.956;5.906;2022-07-23T11:50:41;24.10;99.90
29817;DHT22;16805;52.956;5.906;2022-07-23T11:53:06;24.10;99.90
29817;DHT22;16805;52.956;5.906;2022-07-23T11:55:32;24.10;99.90
29817;DHT22;16805;52.956;5.906;2022-07-23T11:57:59;24.10;99.90
29817;DHT22;16805;52.956;5.906;2022-07-23T12:00:27;24.20;99.90
29817;DHT22;16805;52.956;5.906;2022-07-23T12:02:56;24.20;99.90
29817;DHT22;16805;52.956;5.906;2022-07-23T12:07:54;24.40;99.90
29817;DHT22;16805;52.956;5.906;2022-07-23T12:10:33;24.30;99.90
29817;DHT22;16805;52.956;5.906;2022-07-23T12:13:01;24.40;99.90
29817;DHT22;16805;52.956;5.906;2022-07-23T12:15:39;24.30;99.90
29817;DHT22;16805;52.956;5.906;2022-07-23T12:18:07;24.30;99.90
29817;DHT22;16805;52.956;5.906;2022-07-23T12:20:35;24.40;99.90
29817;DHT22;16805;52.956;5.906;2022-07-23T12:23:04;24.40;99.90
29817;DHT22;16805;52.956;5.906;2022-07-23T12:25:35;24.40;99.90
29817;DHT22;16805;52.956;5.906;2022-07-23T12:28:15;24.30;99.90
29817;DHT22;16805;52.956;5.906;2022-07-23T12:30:50;24.30;99.90
29817;DHT22;16805;52.956;5.906;2022-07-23T12:33:29;24.30;99.90
29817;DHT22;16805;52.956;5.906;2022-07-23T12:35:57;24.30;99.90
29817;DHT22;16805;52.956;5.906;2022-07-23T12:38:25;24.30;99.90
29817;DHT22;16805;52.956;5.906;2022-07-23T12:40:59;24.20;99.90
29817;DHT22;16805;52.956;5.906;2022-07-23T12:43:32;24.20;99.90
29817;DHT22;16805;52.956;5.906;2022-07-23T12:46:15;24.20;99.90
29817;DHT22;16805;52.956;5.906;2022-07-23T12:51:15;24.20;99.90
29817;DHT22;16805;52.956;5.906;2022-07-23T12:53:44;24.20;99.90
29817;DHT22;16805;52.956;5.906;2022-07-23T12:56:16;24.20;99.90
29817;DHT22;16805;52.956;5.906;2022-07-23T13:01:08;24.10;99.90
29817;DHT22;16805;52.956;5.906;2022-07-23T13:03:39;24.10;99.90
29817;DHT22;16805;52.956;5.906;2022-07-23T13:06:08;24.00;99.90
29817;DHT22;16805;52.956;5.906;2022-07-23T13:08:36;23.90;99.90
29817;DHT22;16805;52.956;5.906;2022-07-23T13:11:03;24.00;99.90
29817;DHT22;16805;52.956;5.906;2022-07-23T13:13:31;23.90;99.90
29817;DHT22;16805;52.956;5.906;2022-07-23T13:15:58;23.90;99.90
29817;DHT22;16805;52.956;5.906;2022-07-23T13:18:24;23.90;99.90
29817;DHT22;16805;52.956;5.906;2022-07-23T13:20:51;24.00;99.90
29817;DHT22;16805;52.956;5.906;2022-07-23T13:23:17;24.00;99.90
29817;DHT22;16805;52.956;5.906;2022-07-23T13:25:43;24.10;99.90
29817;DHT22;16805;52.956;5.906;2022-07-23T13:28:09;24.10;99.90
29817;DHT22;16805;52.956;5.906;2022-07-23T13:30:35;24.00;99.90
29817;DHT22;16805;52.956;5.906;2022-07-23T13:33:03;23.90;99.90
29817;DHT22;16805;52.956;5.906;2022-07-23T13:35:29;23.90;99.90
29817;DHT22;16805;52.956;5.906;2022-07-23T13:37:55;24.00;99.90
29817;DHT22;16805;52.956;5.906;2022-07-23T13:40:21;24.00;99.90
29817;DHT22;16805;52.956;5.906;2022-07-23T13:42:47;24.10;99.90
29817;DHT22;16805;52.956;5.906;2022-07-23T13:45:13;24.10;99.90
29817;DHT22;16805;52.956;5.906;2022-07-23T13:47:39;24.20;99.90
29817;DHT22;16805;52.956;5.906;2022-07-23T13:50:05;24.10;99.90
29817;DHT22;16805;52.956;5.906;2022-07-23T13:52:31;24.10;99.90
29817;DHT22;16805;52.956;5.906;2022-07-23T13:55:00;24.20;99.90
29817;DHT22;16805;52.956;5.906;2022-07-23T13:57:26;24.10;99.90
29817;DHT22;16805;52.956;5.906;2022-07-23T13:59:52;24.10;99.90
29817;DHT22;16805;52.956;5.906;2022-07-23T14:02:17;24.10;99.90
29817;DHT22;16805;52.956;5.906;2022-07-23T14:04:46;24.10;99.90
29817;DHT22;16805;52.956;5.906;2022-07-23T14:07:12;24.20;99.90
29817;DHT22;16805;52.956;5.906;2022-07-23T14:09:38;24.10;99.90
29817;DHT22;16805;52.956;5.906;2022-07-23T14:12:05;24.10;99.90
29817;DHT22;16805;52.956;5.906;2022-07-23T14:14:31;24.10;99.90
29817;DHT22;16805;52.956;5.906;2022-07-23T14:16:56;24.00;99.90
29817;DHT22;16805;52.956;5.906;2022-07-23T14:19:22;24.00;99.90
29817;DHT22;16805;52.956;5.906;2022-07-23T14:21:48;23.90;99.90
29817;DHT22;16805;52.956;5.906;2022-07-23T14:24:14;24.00;99.90
29817;DHT22;16805;52.956;5.906;2022-07-23T14:26:40;24.00;99.90
29817;DHT22;16805;52.956;5.906;2022-07-23T14:29:06;24.00;99.90
29817;DHT22;16805;52.956;5.906;2022-07-23T14:31:32;24.00;99.90
29817;DHT22;16805;52.956;5.906;2022-07-23T14:33:57;24.00;99.90
29817;DHT22;16805;52.956;5.906;2022-07-23T14:36:23;23.90;99.90
29817;DHT22;16805;52.956;5.906;2022-07-23T14:38:49;23.90;99.90
29817;DHT22;16805;52.956;5.906;2022-07-23T14:41:14;24.00;99.90
29817;DHT22;16805;52.956;5.906;2022-07-23T14:43:40;23.90;99.90
29817;DHT22;16805;52.956;5.906;2022-07-23T14:46:06;23.90;99.90
29817;DHT22;16805;52.956;5.906;2022-07-23T14:48:32;23.90;99.90
29817;DHT22;16805;52.956;5.906;2022-07-23T14:50:57;23.90;99.90
29817;DHT22;16805;52.956;5.906;2022-07-23T14:53:23;23.80;99.90
29817;DHT22;16805;52.956;5.906;2022-07-23T14:55:49;23.80;99.90
29817;DHT22;16805;52.956;5.906;2022-07-23T14:58:14;23.70;99.90
29817;DHT22;16805;52.956;5.906;2022-07-23T15:00:40;23.70;99.90
29817;DHT22;16805;52.956;5.906;2022-07-23T15:03:06;23.70;99.90
29817;DHT22;16805;52.956;5.906;2022-07-23T15:05:31;23.70;99.90
29817;DHT22;16805;52.956;5.906;2022-07-23T15:07:58;23.70;99.90
29817;DHT22;16805;52.956;5.906;2022-07-23T15:10:24;23.70;99.90
29817;DHT22;16805;52.956;5.906;2022-07-23T15:12:50;23.80;99.90
29817;DHT22;16805;52.956;5.906;2022-07-23T15:15:16;23.80;99.90
29817;DHT22;16805;52.956;5.906;2022-07-23T15:17:43;23.80;99.90
29817;DHT22;16805;52.956;5.906;2022-07-23T15:20:09;23.90;99.90
29817;DHT22;16805;52.956;5.906;2022-07-23T15:22:34;23.80;99.90
29817;DHT22;16805;52.956;5.906;2022-07-23T15:25:00;23.80;99.90
29817;DHT22;16805;52.956;5.906;2022-07-23T15:27:27;23.80;99.90
29817;DHT22;16805;52.956;5.906;2022-07-23T15:29:53;23.70;99.90
29817;DHT22;16805;52.956;5.906;2022-07-23T15:32:18;23.70;99.90
29817;DHT22;16805;52.956;5.906;2022-07-23T15:34:44;23.70;99.90
29817;DHT22;16805;52.956;5.906;2022-07-23T15:37:10;23.70;99.90
29817;DHT22;16805;52.956;5.906;2022-07-23T15:39:35;23.70;99.90
29817;DHT22;16805;52.956;5.906;2022-07-23T15:42:02;23.70;99.90
29817;DHT22;16805;52.956;5.906;2022-07-23T15:44:28;23.60;99.90
29817;DHT22;16805;52.956;5.906;2022-07-23T15:46:55;23.60;99.90
29817;DHT22;16805;52.956;5.906;2022-07-23T15:49:21;23.60;99.90
29817;DHT22;16805;52.956;5.906;2022-07-23T15:51:47;23.70;99.90
29817;DHT22;16805;52.956;5.906;2022-07-23T15:54:12;23.70;99.90
29817;DHT22;16805;52.956;5.906;2022-07-23T15:56:38;23.70;99.90
29817;DHT22;16805;52.956;5.906;2022-07-23T15:59:04;23.70;99.90
29817;DHT22;16805;52.956;5.906;2022-07-23T16:01:29;23.70;99.90
29817;DHT22;16805;52.956;5.906;2022-07-23T16:03:58;23.60;99.90
29817;DHT22;16805;52.956;5.906;2022-07-23T16:06:25;23.50;99.90
29817;DHT22;16805;52.956;5.906;2022-07-23T16:08:51;23.60;99.90
29817;DHT22;16805;52.956;5.906;2022-07-23T16:11:17;23.60;99.90
29817;DHT22;16805;52.956;5.906;2022-07-23T16:13:43;23.60;99.90
29817;DHT22;16805;52.956;5.906;2022-07-23T16:16:10;23.60;99.90
29817;DHT22;16805;52.956;5.906;2022-07-23T16:18:37;23.60;99.90
29817;DHT22;16805;52.956;5.906;2022-07-23T16:21:03;23.60;99.90
29817;DHT22;16805;52.956;5.906;2022-07-23T16:23:29;23.60;99.90
29817;DHT22;16805;52.956;5.906;2022-07-23T16:25:55;23.60;99.90
29817;DHT22;16805;52.956;5.906;2022-07-23T16:28:20;23.60;99.90